createdAt,value
2022-11-17T00:07:52.044Z,28.48
2022-11-17T00:14:13.305Z,27.45
2022-11-17T00:20:34.471Z,27.35
2022-11-17T00:27:00.058Z,26.17
2022-11-17T00:33:22.786Z,25.95
2022-11-17T00:39:25.147Z,28.83
2022-11-17T00:45:27.343Z,28.13
2022-11-17T00:51:29.783Z,27.80
2022-11-17T00:57:31.899Z,30.42
2022-11-17T01:03:38.166Z,29.83
2022-11-17T01:09:40.567Z,29.83
2022-11-17T01:15:42.597Z,28.90
2022-11-17T01:21:45.025Z,29.23
2022-11-17T01:27:48.182Z,28.70
2022-11-17T01:33:50.299Z,28.70
2022-11-17T01:39:52.372Z,29.43
2022-11-17T01:45:54.557Z,29.83
2022-11-17T01:52:02.522Z,28.07
2022-11-17T01:58:19.243Z,30.02
2022-11-17T02:04:24.474Z,28.13
2022-11-17T02:10:30.445Z,29.60
2022-11-17T02:16:32.779Z,28.67
2022-11-17T02:22:47.501Z,28.35
2022-11-17T02:29:13.055Z,28.85
2022-11-17T02:35:24.246Z,30.95
2022-11-17T02:41:38.488Z,31.20
2022-11-17T02:47:42.973Z,31.48
2022-11-17T02:53:45.376Z,31.73
2022-11-17T02:59:48.903Z,31.40
2022-11-17T03:06:38.885Z,30.40
2022-11-17T03:12:48.530Z,34.60
2022-11-17T03:19:12.196Z,33.42
2022-11-17T03:25:18.238Z,31.35
2022-11-17T03:31:23.045Z,31.70
2022-11-17T03:37:29.038Z,33.10
2022-11-17T03:43:32.998Z,32.65
2022-11-17T03:49:58.676Z,29.90
2022-11-17T03:56:07.542Z,30.05
2022-11-17T04:02:31.807Z,27.95
2022-11-17T04:08:34.157Z,29.88
2022-11-17T04:14:54.921Z,31.25
2022-11-17T04:20:57.659Z,30.02
2022-11-17T04:27:18.271Z,28.33
2022-11-17T04:33:20.325Z,28.00
2022-11-17T04:39:22.325Z,31.43
2022-11-17T04:45:24.427Z,31.27
2022-11-17T04:51:27.079Z,31.10
2022-11-17T04:57:29.282Z,32.95
2022-11-17T05:03:31.483Z,34.22
2022-11-17T05:09:33.627Z,34.90
2022-11-17T05:15:54.507Z,34.07
2022-11-17T05:21:57.439Z,33.45
2022-11-17T05:27:59.608Z,34.03
2022-11-17T05:34:02.869Z,34.27
2022-11-17T05:40:05.388Z,33.45
2022-11-17T05:46:07.568Z,35.25
2022-11-17T05:52:09.958Z,34.22
2022-11-17T05:58:33.792Z,33.55
2022-11-17T06:04:36.034Z,34.67
2022-11-17T06:10:38.360Z,35.15
2022-11-17T06:16:44.921Z,34.70
2022-11-17T06:22:48.829Z,34.33
2022-11-17T06:28:51.825Z,40.33
2022-11-17T06:34:56.278Z,35.97
2022-11-17T06:40:58.791Z,34.78
2022-11-17T06:47:00.969Z,36.40
2022-11-17T06:53:06.526Z,34.45
2022-11-17T06:59:08.662Z,35.28
2022-11-17T07:05:10.759Z,35.37
2022-11-17T07:11:15.469Z,34.17
2022-11-17T07:17:17.609Z,34.72
2022-11-17T07:23:19.791Z,36.17
2022-11-17T07:29:21.903Z,39.43
2022-11-17T07:35:23.915Z,37.73
2022-11-17T07:41:26.117Z,40.23
2022-11-17T07:47:28.118Z,37.47
2022-11-17T07:53:31.968Z,38.97
2022-11-17T07:59:34.036Z,36.08
2022-11-17T08:05:42.915Z,34.17
2022-11-17T08:11:45.862Z,36.55
2022-11-17T08:17:52.662Z,33.45
2022-11-17T08:23:55.520Z,30.13
2022-11-17T08:36:01.287Z,25.17
2022-11-17T08:42:03.538Z,24.05
2022-11-17T08:48:07.722Z,23.52
2022-11-17T08:54:12.991Z,27.00
2022-11-17T09:00:16.813Z,26.35
2022-11-17T09:06:20.617Z,26.80
2022-11-17T09:12:26.227Z,23.48
2022-11-17T09:18:28.527Z,22.48
2022-11-17T09:24:31.287Z,19.48
2022-11-17T09:30:33.744Z,19.02
2022-11-17T09:36:37.210Z,20.98
2022-11-17T09:42:40.626Z,20.90
2022-11-17T09:48:52.559Z,21.80
2022-11-17T09:55:00.266Z,22.33
2022-11-17T10:01:02.401Z,20.38
2022-11-17T10:07:04.669Z,18.43
2022-11-17T10:13:24.338Z,20.30
2022-11-17T10:19:37.094Z,19.85
2022-11-17T10:25:42.511Z,17.13
2022-11-17T10:31:46.669Z,17.42
2022-11-17T10:38:17.694Z,16.42
2022-11-17T10:44:25.046Z,17.27
2022-11-17T10:50:28.383Z,14.02
2022-11-17T10:56:32.342Z,14.45
2022-11-17T11:02:36.833Z,14.52
2022-11-17T11:08:51.839Z,12.43
2022-11-17T11:14:57.700Z,11.95
2022-11-17T11:21:08.925Z,14.23
2022-11-17T11:27:34.278Z,15.18
2022-11-17T11:33:50.333Z,14.73
2022-11-17T11:39:59.699Z,15.80
2022-11-17T11:46:29.341Z,17.15
2022-11-17T11:52:36.830Z,17.65
2022-11-17T11:58:45.820Z,19.48
2022-11-17T12:04:58.956Z,20.63
2022-11-17T12:17:26.608Z,22.35
2022-11-17T12:23:47.953Z,25.73
2022-11-17T12:29:50.004Z,24.58
2022-11-17T12:36:30.577Z,21.70
2022-11-17T12:42:35.138Z,20.88
2022-11-17T12:48:39.567Z,21.52
2022-11-17T12:54:56.615Z,23.42
2022-11-17T13:01:23.947Z,22.10
2022-11-17T13:07:27.348Z,21.70
2022-11-17T13:13:29.807Z,19.30
2022-11-17T13:19:38.403Z,19.90
2022-11-17T13:25:40.952Z,16.73
2022-11-17T13:31:43.523Z,17.27
2022-11-17T13:37:46.463Z,17.30
2022-11-17T13:49:51.952Z,15.13
2022-11-17T14:02:21.083Z,17.50
2022-11-17T14:08:32.270Z,19.35
2022-11-17T14:14:44.124Z,17.55
2022-11-17T14:20:48.534Z,15.13
2022-11-17T14:26:51.326Z,15.23
2022-11-17T14:38:56.537Z,14.25
2022-11-17T14:44:58.924Z,13.73
2022-11-17T14:51:02.171Z,12.23
2022-11-17T14:57:04.655Z,13.15
2022-11-17T15:03:07.869Z,11.35
2022-11-17T15:09:16.313Z,11.88
2022-11-17T15:15:18.682Z,12.02
2022-11-17T15:21:21.454Z,12.60
2022-11-17T15:27:24.143Z,13.60
2022-11-17T15:33:27.527Z,14.05
2022-11-17T15:39:31.122Z,14.48
2022-11-17T15:45:36.361Z,13.65
2022-11-17T15:51:38.759Z,14.35
2022-11-17T15:57:41.323Z,13.13
2022-11-17T16:03:45.648Z,13.27
2022-11-17T16:09:50.273Z,15.45
2022-11-17T16:15:54.654Z,14.88
2022-11-17T16:21:57.555Z,14.93
2022-11-17T16:27:59.936Z,13.95
2022-11-17T16:34:06.074Z,12.00
2022-11-17T16:40:08.836Z,12.07
2022-11-17T16:46:21.578Z,11.20
2022-11-17T16:52:23.955Z,11.00
2022-11-17T16:58:26.066Z,10.98
2022-11-17T17:04:30.772Z,10.53
2022-11-17T17:10:33.937Z,12.60
2022-11-17T17:16:38.034Z,10.20
2022-11-17T17:22:40.509Z,10.23
2022-11-17T17:28:45.222Z,10.15
2022-11-17T17:34:48.348Z,10.35
2022-11-17T17:40:51.002Z,10.05
2022-11-17T17:46:53.237Z,10.13
2022-11-17T17:52:55.420Z,10.10
2022-11-17T17:58:58.326Z,7.55
2022-11-17T18:05:00.530Z,9.98
2022-11-17T18:11:06.384Z,8.93
2022-11-17T18:17:08.734Z,10.20
2022-11-17T18:23:11.217Z,9.32
2022-11-17T18:29:19.129Z,9.23
2022-11-17T18:35:21.806Z,9.20
2022-11-17T18:41:24.636Z,10.05
2022-11-17T18:47:26.981Z,11.02
2022-11-17T18:53:30.806Z,10.45
2022-11-17T18:59:33.366Z,9.98
2022-11-17T19:05:35.649Z,11.13
2022-11-17T19:11:38.035Z,11.02
2022-11-17T19:17:40.321Z,11.15
2022-11-17T19:23:49.623Z,10.43
2022-11-17T19:29:53.569Z,11.77
2022-11-17T19:35:55.958Z,12.93
2022-11-17T19:41:58.377Z,13.80
2022-11-17T19:48:01.386Z,11.23
2022-11-17T19:54:08.371Z,12.52
2022-11-17T20:00:11.096Z,13.13
2022-11-17T20:06:19.520Z,12.60
2022-11-17T20:12:21.939Z,11.43
2022-11-17T20:18:24.066Z,16.17
2022-11-17T20:24:26.191Z,12.37
2022-11-17T20:30:28.519Z,12.80
2022-11-17T20:36:32.641Z,12.05
2022-11-17T20:42:34.656Z,12.10
2022-11-17T20:48:36.910Z,14.40
2022-11-17T20:54:38.887Z,13.35
2022-11-17T21:00:41.341Z,10.27
2022-11-17T21:06:43.523Z,13.20
2022-11-17T21:12:45.789Z,14.20
2022-11-17T21:18:48.802Z,13.88
2022-11-17T21:24:50.930Z,13.52
2022-11-17T21:30:53.910Z,14.13
2022-11-17T21:36:56.325Z,13.50
2022-11-17T21:43:00.183Z,12.65
2022-11-17T21:49:02.578Z,12.50
2022-11-17T21:55:05.187Z,14.13
2022-11-17T22:01:15.530Z,11.55
2022-11-17T22:07:17.844Z,12.25
2022-11-17T22:13:20.033Z,13.57
2022-11-17T22:19:24.138Z,12.00
2022-11-17T22:31:50.020Z,12.10
2022-11-17T22:37:52.368Z,12.30
2022-11-17T22:43:56.524Z,12.27
2022-11-17T22:49:58.578Z,12.57
2022-11-17T22:56:09.545Z,11.27
2022-11-17T23:02:12.003Z,13.10
2022-11-17T23:08:14.156Z,11.95
2022-11-17T23:14:16.495Z,12.43
2022-11-17T23:20:18.706Z,11.10
2022-11-17T23:26:21.051Z,13.30
2022-11-17T23:32:23.235Z,11.40
2022-11-17T23:38:25.826Z,12.95
2022-11-17T23:44:28.376Z,12.15
2022-11-17T23:50:30.490Z,13.13
2022-11-17T23:56:34.109Z,13.48
